createdAt,value
2019-02-05T00:01:36.912Z,101788.02
2019-02-05T00:04:09.047Z,101788.03
2019-02-05T00:06:41.056Z,101783.14
2019-02-05T00:09:14.049Z,101784.05
2019-02-05T00:11:46.326Z,101784.94
2019-02-05T00:14:18.510Z,101783.63
2019-02-05T00:16:50.643Z,101793.77
2019-02-05T00:19:23.339Z,101789.34
2019-02-05T00:21:55.102Z,101787.61
2019-02-05T00:24:26.815Z,101776.55
2019-02-05T00:26:59.323Z,101775.70
2019-02-05T00:29:30.628Z,101784.52
2019-02-05T00:32:02.662Z,101777.45
2019-02-05T00:34:34.889Z,101788.91
2019-02-05T00:37:06.971Z,101792.89
2019-02-05T00:39:39.032Z,101794.66
2019-02-05T00:42:11.495Z,101800.84
2019-02-05T00:44:43.587Z,101790.67
2019-02-05T00:47:15.425Z,101801.72
2019-02-05T00:49:47.108Z,101793.34
2019-02-05T00:52:19.440Z,101788.06
2019-02-05T00:54:51.732Z,101792.03
2019-02-05T00:57:23.085Z,101788.91
2019-02-05T00:59:55.257Z,101795.54
2019-02-05T01:02:27.601Z,101793.34
2019-02-05T01:05:00.508Z,101792.00
2019-02-05T01:07:32.033Z,101786.71
2019-02-05T01:10:03.871Z,101793.77
2019-02-05T01:12:36.478Z,101784.95
2019-02-05T01:15:10.528Z,101785.39
2019-02-05T01:17:42.680Z,101791.99
2019-02-05T01:20:16.790Z,101797.75
2019-02-05T01:22:48.922Z,101786.70
2019-02-05T01:25:20.889Z,101797.73
2019-02-05T01:27:52.606Z,101786.73
2019-02-05T01:30:26.800Z,101789.36
2019-02-05T01:32:58.968Z,101796.41
2019-02-05T01:35:31.652Z,101797.30
2019-02-05T01:38:03.365Z,101793.31
2019-02-05T01:40:34.774Z,101792.00
2019-02-05T01:43:07.699Z,101795.08
2019-02-05T01:45:40.378Z,101789.77
2019-02-05T01:48:13.491Z,101786.23
2019-02-05T01:50:45.191Z,101800.80
2019-02-05T01:53:16.894Z,101788.45
2019-02-05T01:55:48.229Z,101800.80
2019-02-05T01:58:19.857Z,101785.80
2019-02-05T02:00:52.033Z,101797.70
2019-02-05T02:03:24.102Z,101790.19
2019-02-05T02:05:57.355Z,101794.17
2019-02-05T02:08:29.401Z,101793.28
2019-02-05T02:11:00.889Z,101792.86
2019-02-05T02:13:32.290Z,101792.84
2019-02-05T02:16:04.959Z,101792.39
2019-02-05T02:18:36.703Z,101800.78
2019-02-05T02:21:08.926Z,101803.42
2019-02-05T02:23:40.643Z,101787.98
2019-02-05T02:26:12.052Z,101801.23
2019-02-05T02:28:44.715Z,101788.41
2019-02-05T02:31:16.096Z,101790.61
2019-02-05T02:33:47.418Z,101778.70
2019-02-05T02:36:19.821Z,101791.05
2019-02-05T02:38:51.193Z,101798.12
2019-02-05T02:41:23.297Z,101798.55
2019-02-05T02:43:55.699Z,101800.30
2019-02-05T02:46:27.571Z,101805.16
2019-02-05T02:48:58.957Z,101802.08
2019-02-05T02:51:31.182Z,101807.78
2019-02-05T02:54:03.470Z,101804.25
2019-02-05T02:56:34.848Z,101801.62
2019-02-05T02:59:06.936Z,101795.86
2019-02-05T03:01:38.760Z,101796.73
2019-02-05T03:04:10.531Z,101801.12
2019-02-05T03:06:42.552Z,101797.14
2019-02-05T03:09:13.960Z,101801.12
2019-02-05T03:11:45.822Z,101804.19
2019-02-05T03:14:17.620Z,101815.27
2019-02-05T03:16:49.399Z,101810.81
2019-02-05T03:19:20.779Z,101810.86
2019-02-05T03:21:53.018Z,101807.30
2019-02-05T03:24:25.001Z,101800.23
2019-02-05T03:26:57.179Z,101806.84
2019-02-05T03:29:32.043Z,101793.58
2019-02-05T03:32:03.301Z,101799.35
2019-02-05T03:34:35.487Z,101804.21
2019-02-05T03:37:07.742Z,101799.77
2019-02-05T03:39:40.978Z,101789.18
2019-02-05T03:42:12.175Z,101794.03
2019-02-05T03:44:43.743Z,101794.91
2019-02-05T03:47:16.570Z,101809.50
2019-02-05T03:49:49.465Z,101811.23
2019-02-05T03:52:35.229Z,101814.33
2019-02-05T03:55:40.186Z,101808.14
2019-02-05T03:58:45.936Z,101815.17
2019-02-05T04:02:00.836Z,101804.19
2019-02-05T04:05:09.374Z,101814.36
2019-02-05T04:08:24.938Z,101805.51
2019-02-05T04:11:29.359Z,101813.39
2019-02-05T04:14:31.049Z,101809.45
2019-02-05T04:17:26.604Z,101817.81
2019-02-05T04:20:56.947Z,101825.34
2019-02-05T04:23:59.759Z,101821.86
2019-02-05T04:27:26.905Z,101819.16
2019-02-05T04:30:32.573Z,101825.30
2019-02-05T04:33:53.465Z,101823.93
2019-02-05T04:37:03.388Z,101812.48
2019-02-05T04:40:21.064Z,101819.56
2019-02-05T04:43:09.576Z,101804.92
2019-02-05T04:46:28.361Z,101811.09
2019-02-05T04:49:39.607Z,101822.59
2019-02-05T04:52:43.718Z,101812.41
2019-02-05T04:55:50.130Z,101810.64
2019-02-05T04:59:00.557Z,101819.53
2019-02-05T05:02:15.642Z,101817.84
2019-02-05T05:05:40.892Z,101822.66
2019-02-05T05:08:39.130Z,101832.36
2019-02-05T05:11:10.323Z,101842.52
2019-02-05T05:13:41.553Z,101833.23
2019-02-05T05:16:12.776Z,101837.67
2019-02-05T05:18:44.046Z,101840.23
2019-02-05T05:21:15.295Z,101847.77
2019-02-05T05:23:48.319Z,101835.82
2019-02-05T05:26:19.900Z,101851.81
2019-02-05T05:28:51.694Z,101851.81
2019-02-05T05:31:23.791Z,101859.36
2019-02-05T05:33:55.127Z,101857.19
2019-02-05T05:36:26.725Z,101858.04
2019-02-05T05:38:58.958Z,101870.00
2019-02-05T05:41:30.197Z,101861.98
2019-02-05T05:44:01.449Z,101854.94
2019-02-05T05:46:33.117Z,101863.35
2019-02-05T05:49:04.864Z,101859.83
2019-02-05T05:51:36.400Z,101860.72
2019-02-05T05:54:08.413Z,101870.44
2019-02-05T05:56:39.887Z,101866.45
2019-02-05T05:59:12.027Z,101868.66
2019-02-05T06:01:43.331Z,101867.31
2019-02-05T06:04:15.087Z,101875.25
2019-02-05T06:06:46.855Z,101873.06
2019-02-05T06:09:18.056Z,101873.48
2019-02-05T06:11:50.969Z,101873.06
2019-02-05T06:14:22.790Z,101873.94
2019-02-05T06:16:54.352Z,101883.64
2019-02-05T06:19:26.171Z,101880.52
2019-02-05T06:21:57.780Z,101884.06
2019-02-05T06:24:29.648Z,101879.64
2019-02-05T06:27:01.816Z,101878.76
2019-02-05T06:29:33.012Z,101881.80
2019-02-05T06:32:04.349Z,101889.34
2019-02-05T06:34:35.957Z,101889.76
2019-02-05T06:37:08.003Z,101899.02
2019-02-05T06:39:39.550Z,101893.73
2019-02-05T06:42:10.695Z,101895.97
2019-02-05T06:44:42.154Z,101892.87
2019-02-05T06:47:13.648Z,101899.94
2019-02-05T06:49:45.503Z,101906.53
2019-02-05T06:52:17.033Z,101903.88
2019-02-05T06:54:48.309Z,101907.44
2019-02-05T06:57:28.952Z,101910.08
2019-02-05T07:00:00.191Z,101919.80
2019-02-05T07:02:31.464Z,101920.64
2019-02-05T07:05:02.677Z,101933.92
2019-02-05T07:07:34.361Z,101930.84
2019-02-05T07:10:08.198Z,101937.45
2019-02-05T07:12:39.955Z,101942.27
2019-02-05T07:15:11.913Z,101957.31
2019-02-05T07:17:49.811Z,101953.36
2019-02-05T07:20:17.014Z,101957.31
2019-02-05T07:22:48.570Z,101964.40
2019-02-05T07:25:20.734Z,101950.19
2019-02-05T07:27:52.821Z,101962.56
2019-02-05T07:30:29.854Z,101967.03
2019-02-05T07:33:01.792Z,101964.82
2019-02-05T07:35:33.051Z,101966.63
2019-02-05T07:38:05.563Z,101959.13
2019-02-05T07:40:36.896Z,101968.80
2019-02-05T07:43:08.786Z,101973.63
2019-02-05T07:45:40.403Z,101973.18
2019-02-05T07:48:12.777Z,101977.14
2019-02-05T07:51:03.887Z,101981.56
2019-02-05T07:53:35.694Z,101984.70
2019-02-05T07:56:07.934Z,101995.31
2019-02-05T07:58:39.464Z,101979.37
2019-02-05T08:01:11.442Z,101988.70
2019-02-05T08:03:42.883Z,101996.21
2019-02-05T08:06:14.947Z,101996.70
2019-02-05T08:08:46.992Z,101993.56
2019-02-05T08:11:18.440Z,101995.33
2019-02-05T08:13:49.819Z,101990.03
2019-02-05T08:16:22.184Z,102003.70
2019-02-05T08:18:54.488Z,102002.86
2019-02-05T08:21:27.020Z,102001.52
2019-02-05T08:23:58.256Z,102015.62
2019-02-05T08:26:30.103Z,101999.70
2019-02-05T08:29:01.717Z,102008.98
2019-02-05T08:31:34.587Z,102008.08
2019-02-05T08:34:06.831Z,102028.45
2019-02-05T08:36:39.952Z,102018.71
2019-02-05T08:39:12.365Z,102022.19
2019-02-05T08:41:44.799Z,102026.61
2019-02-05T08:44:16.761Z,102028.84
2019-02-05T08:46:48.399Z,102028.45
2019-02-05T08:49:20.570Z,102026.20
2019-02-05T08:51:51.804Z,102033.27
2019-02-05T08:54:23.999Z,102035.88
2019-02-05T08:56:56.310Z,102034.14
2019-02-05T08:59:28.388Z,102039.82
2019-02-05T09:02:00.052Z,102032.70
2019-02-05T09:04:33.655Z,102039.69
2019-02-05T09:07:05.944Z,102034.48
2019-02-05T09:09:37.174Z,102038.02
2019-02-05T09:12:08.619Z,102042.92
2019-02-05T09:14:40.495Z,102038.52
2019-02-05T09:17:11.791Z,102053.95
2019-02-05T09:19:43.807Z,102055.28
2019-02-05T09:22:15.972Z,102061.92
2019-02-05T09:24:48.238Z,102074.70
2019-02-05T09:27:20.833Z,102071.61
2019-02-05T09:29:52.473Z,102061.84
2019-02-05T09:32:24.463Z,102057.91
2019-02-05T09:34:56.293Z,102056.19
2019-02-05T09:37:28.269Z,102062.78
2019-02-05T09:40:00.320Z,102061.48
2019-02-05T09:42:33.834Z,102065.88
2019-02-05T09:45:06.948Z,102073.31
2019-02-05T09:47:38.574Z,102071.55
2019-02-05T09:50:12.921Z,102080.44
2019-02-05T09:52:44.852Z,102072.84
2019-02-05T09:55:16.902Z,102073.76
2019-02-05T09:57:49.166Z,102076.86
2019-02-05T10:00:23.193Z,102076.40
2019-02-05T10:02:55.528Z,102060.87
2019-02-05T10:05:28.392Z,102068.79
2019-02-05T10:08:01.557Z,102076.79
2019-02-05T10:10:33.540Z,102094.95
2019-02-05T10:13:06.775Z,102090.90
2019-02-05T10:15:39.481Z,102084.78
2019-02-05T10:18:12.404Z,102080.28
2019-02-05T10:21:09.758Z,102089.23
2019-02-05T10:23:41.595Z,102091.84
2019-02-05T10:26:13.155Z,102083.89
2019-02-05T10:28:46.501Z,102083.36
2019-02-05T10:31:18.761Z,102081.58
2019-02-05T10:33:58.224Z,102091.28
2019-02-05T10:36:31.323Z,102093.91
2019-02-05T10:39:04.875Z,102096.55
2019-02-05T10:45:26.133Z,102097.48
2019-02-05T10:47:58.634Z,102092.62
2019-02-05T10:50:30.166Z,102099.77
2019-02-05T10:53:02.119Z,102101.48
2019-02-05T10:55:35.821Z,102095.69
2019-02-05T10:58:15.141Z,102107.16
2019-02-05T11:00:46.999Z,102103.66
2019-02-05T11:04:01.015Z,102109.80
2019-02-05T11:06:33.480Z,102112.39
2019-02-05T11:09:19.070Z,102107.14
2019-02-05T11:11:54.019Z,102108.50
2019-02-05T11:14:25.845Z,102109.88
2019-02-05T11:16:57.203Z,102113.73
2019-02-05T11:19:29.320Z,102106.26
2019-02-05T11:22:02.319Z,102121.28
2019-02-05T11:24:45.040Z,102125.27
2019-02-05T11:27:18.505Z,102115.48
2019-02-05T11:29:51.784Z,102122.13
2019-02-05T11:32:52.752Z,102127.93
2019-02-05T11:35:18.792Z,102115.45
2019-02-05T11:37:50.492Z,102114.16
2019-02-05T11:40:25.679Z,102112.91
2019-02-05T11:42:57.428Z,102116.39
2019-02-05T11:45:30.795Z,102112.36
2019-02-05T11:48:06.093Z,102115.06
2019-02-05T11:50:38.164Z,102113.73
2019-02-05T11:53:09.997Z,102120.45
2019-02-05T11:55:41.497Z,102121.65
2019-02-05T11:58:14.821Z,102114.08
2019-02-05T12:00:52.206Z,102116.02
2019-02-05T12:03:23.651Z,102112.34
2019-02-05T12:05:55.732Z,102117.56
2019-02-05T12:08:28.497Z,102116.66
2019-02-05T12:10:59.853Z,102121.05
2019-02-05T12:13:31.561Z,102106.44
2019-02-05T12:16:04.550Z,102111.34
2019-02-05T12:18:36.229Z,102116.62
2019-02-05T12:21:08.854Z,102122.80
2019-02-05T12:23:40.503Z,102118.40
2019-02-05T12:26:12.085Z,102115.24
2019-02-05T12:28:44.124Z,102120.10
2019-02-05T12:31:15.896Z,102116.59
2019-02-05T12:33:48.144Z,102121.02
2019-02-05T12:36:20.610Z,102125.95
2019-02-05T12:38:53.628Z,102125.48
2019-02-05T12:41:24.996Z,102121.57
2019-02-05T12:43:59.668Z,102119.35
2019-02-05T12:46:31.324Z,102121.08
2019-02-05T12:49:02.992Z,102106.06
2019-02-05T12:51:34.964Z,102111.27
2019-02-05T12:54:07.034Z,102115.20
2019-02-05T12:56:55.356Z,102108.55
2019-02-05T12:59:29.550Z,102113.84
2019-02-05T13:02:01.521Z,102112.58
2019-02-05T13:04:33.904Z,102112.45
2019-02-05T13:07:06.124Z,102124.98
2019-02-05T13:09:42.696Z,102114.17
2019-02-05T13:12:14.263Z,102119.66
2019-02-05T13:14:48.474Z,102113.38
2019-02-05T13:17:21.800Z,102119.25
2019-02-05T13:19:53.901Z,102112.59
2019-02-05T13:22:25.461Z,102115.26
2019-02-05T13:24:57.266Z,102118.33
2019-02-05T13:27:29.278Z,102114.22
2019-02-05T13:30:04.163Z,102118.41
2019-02-05T13:32:38.811Z,102118.41
2019-02-05T13:35:11.152Z,102126.86
2019-02-05T13:37:42.685Z,102123.27
2019-02-05T13:40:19.813Z,102124.61
2019-02-05T13:42:52.621Z,102116.27
2019-02-05T13:45:29.448Z,102118.80
2019-02-05T13:48:00.937Z,102133.28
2019-02-05T13:50:34.894Z,102120.90
2019-02-05T13:53:08.769Z,102121.30
2019-02-05T13:56:01.726Z,102124.48
2019-02-05T13:58:32.406Z,102134.53
2019-02-05T14:01:04.496Z,102127.30
2019-02-05T14:03:36.627Z,102121.53
2019-02-05T14:06:08.815Z,102125.95
2019-02-05T14:08:41.527Z,102136.98
2019-02-05T14:11:13.770Z,102135.32
2019-02-05T14:13:45.363Z,102143.75
2019-02-05T14:16:16.658Z,102137.04
2019-02-05T14:18:55.304Z,102146.91
2019-02-05T14:21:22.370Z,102144.66
2019-02-05T14:23:54.410Z,102156.33
2019-02-05T14:26:27.448Z,102158.55
2019-02-05T14:28:59.211Z,102158.94
2019-02-05T14:31:33.136Z,102164.80
2019-02-05T14:34:05.349Z,102164.30
2019-02-05T14:36:37.663Z,102163.88
2019-02-05T14:39:11.913Z,102164.32
2019-02-05T14:41:47.699Z,102166.47
2019-02-05T14:44:20.997Z,102169.64
2019-02-05T14:46:54.535Z,102174.12
2019-02-05T14:49:25.850Z,102176.38
2019-02-05T14:52:00.335Z,102176.70
2019-02-05T14:54:32.531Z,102175.36
2019-02-05T14:57:06.317Z,102164.39
2019-02-05T15:00:05.105Z,102180.73
2019-02-05T15:02:40.036Z,102183.34
2019-02-05T15:05:12.036Z,102176.38
2019-02-05T15:07:53.454Z,102175.41
2019-02-05T15:10:25.029Z,102181.27
2019-02-05T15:13:00.277Z,102188.75
2019-02-05T15:15:33.030Z,102189.52
2019-02-05T15:18:05.639Z,102191.41
2019-02-05T15:20:39.710Z,102196.73
2019-02-05T15:23:13.268Z,102189.25
2019-02-05T15:25:45.000Z,102176.00
2019-02-05T15:28:16.851Z,102183.65
2019-02-05T15:30:55.333Z,102185.38
2019-02-05T15:33:48.424Z,102192.46
2019-02-05T15:36:25.665Z,102200.52
2019-02-05T15:38:58.446Z,102190.66
2019-02-05T15:41:30.448Z,102201.39
2019-02-05T15:44:03.424Z,102201.79
2019-02-05T15:46:35.299Z,102199.14
2019-02-05T15:49:08.346Z,102202.33
2019-02-05T15:51:41.752Z,102202.71
2019-02-05T15:54:35.875Z,102204.09
2019-02-05T15:57:11.690Z,102211.61
2019-02-05T15:59:47.011Z,102215.58
2019-02-05T16:02:20.158Z,102216.50
2019-02-05T16:04:55.205Z,102223.61
2019-02-05T16:07:29.145Z,102219.14
2019-02-05T16:10:18.158Z,102220.64
2019-02-05T16:12:51.690Z,102214.86
2019-02-05T16:15:25.748Z,102224.19
2019-02-05T16:17:57.073Z,102227.25
2019-02-05T16:20:28.809Z,102231.66
2019-02-05T16:23:05.276Z,102230.80
2019-02-05T16:25:58.021Z,102225.41
2019-02-05T16:28:30.643Z,102240.52
2019-02-05T16:31:06.494Z,102241.86
2019-02-05T16:33:39.483Z,102243.63
2019-02-05T16:36:12.305Z,102242.80
2019-02-05T16:38:47.874Z,102245.89
2019-02-05T16:41:31.502Z,102249.42
2019-02-05T16:44:13.985Z,102246.25
2019-02-05T16:46:46.014Z,102254.61
2019-02-05T16:49:22.482Z,102251.52
2019-02-05T16:52:10.108Z,102259.58
2019-02-05T16:55:22.137Z,102268.05
2019-02-05T17:00:47.315Z,102266.19
2019-02-05T17:03:18.534Z,102268.41
2019-02-05T17:05:56.082Z,102266.71
2019-02-05T17:08:29.760Z,102266.70
2019-02-05T17:11:01.032Z,102265.41
2019-02-05T17:13:32.859Z,102269.88
2019-02-05T17:16:06.284Z,102267.67
2019-02-05T17:18:37.985Z,102282.23
2019-02-05T17:21:11.100Z,102284.46
2019-02-05T17:23:44.553Z,102282.25
2019-02-05T17:26:16.104Z,102287.07
2019-02-05T17:28:47.945Z,102285.35
2019-02-05T17:31:25.991Z,102290.70
2019-02-05T17:34:00.627Z,102284.05
2019-02-05T17:36:33.060Z,102289.81
2019-02-05T17:39:08.132Z,102296.45
2019-02-05T17:41:40.407Z,102301.33
2019-02-05T17:44:18.819Z,102305.33
2019-02-05T17:46:52.505Z,102313.31
2019-02-05T17:49:24.431Z,102304.46
2019-02-05T17:51:57.152Z,102308.41
2019-02-05T17:54:28.942Z,102300.45
2019-02-05T17:57:00.377Z,102315.96
2019-02-05T17:59:44.308Z,102313.77
2019-02-05T18:02:15.940Z,102318.20
2019-02-05T18:04:48.083Z,102321.75
2019-02-05T18:07:20.148Z,102325.29
2019-02-05T18:09:52.010Z,102313.34
2019-02-05T18:12:24.517Z,102318.66
2019-02-05T18:14:57.151Z,102311.16
2019-02-05T18:17:30.440Z,102320.44
2019-02-05T18:20:03.664Z,102323.08
2019-02-05T18:22:36.303Z,102324.43
2019-02-05T18:25:09.663Z,102323.09
2019-02-05T18:27:41.819Z,102331.48
2019-02-05T18:30:20.918Z,102340.36
2019-02-05T18:33:03.353Z,102340.77
2019-02-05T18:35:28.363Z,102341.23
2019-02-05T18:38:00.141Z,102335.48
2019-02-05T18:40:33.338Z,102339.03
2019-02-05T18:43:05.310Z,102332.37
2019-02-05T18:45:38.277Z,102343.41
2019-02-05T18:48:09.968Z,102338.13
2019-02-05T18:50:47.821Z,102335.05
2019-02-05T18:53:19.910Z,102338.14
2019-02-05T18:55:51.657Z,102346.09
2019-02-05T18:58:26.544Z,102346.97
2019-02-05T19:00:56.803Z,102342.52
2019-02-05T19:03:29.240Z,102344.77
2019-02-05T19:06:01.339Z,102336.81
2019-02-05T19:08:33.901Z,102345.22
2019-02-05T19:11:06.133Z,102345.66
2019-02-05T19:13:37.510Z,102346.55
2019-02-05T19:16:09.966Z,102344.77
2019-02-05T19:18:42.260Z,102351.40
2019-02-05T19:21:14.534Z,102352.71
2019-02-05T19:23:48.162Z,102352.28
2019-02-05T19:26:29.475Z,102353.62
2019-02-05T19:29:01.597Z,102348.75
2019-02-05T19:31:40.371Z,102355.77
2019-02-05T19:34:12.686Z,102350.91
2019-02-05T19:36:44.627Z,102353.52
2019-02-05T19:39:17.016Z,102349.08
2019-02-05T19:41:50.247Z,102357.91
2019-02-05T19:44:21.685Z,102348.17
2019-02-05T19:47:03.348Z,102345.91
2019-02-05T19:49:43.873Z,102341.51
2019-02-05T19:52:16.271Z,102345.97
2019-02-05T19:54:50.917Z,102346.36
2019-02-05T19:57:23.401Z,102344.07
2019-02-05T19:59:56.158Z,102343.70
2019-02-05T20:02:28.252Z,102345.94
2019-02-05T20:05:00.362Z,102351.31
2019-02-05T20:07:36.465Z,102360.53
2019-02-05T20:10:09.072Z,102361.47
2019-02-05T20:12:40.594Z,102368.11
2019-02-05T20:15:12.416Z,102367.57
2019-02-05T20:17:44.134Z,102375.61
2019-02-05T20:20:15.646Z,102365.42
2019-02-05T20:22:50.361Z,102374.28
2019-02-05T20:25:22.447Z,102370.22
2019-02-05T20:27:59.052Z,102371.05
2019-02-05T20:30:30.290Z,102376.76
2019-02-05T20:33:01.965Z,102370.67
2019-02-05T20:35:34.065Z,102368.89
2019-02-05T20:38:06.719Z,102373.74
2019-02-05T20:40:38.689Z,102373.75
2019-02-05T20:43:10.843Z,102372.46
2019-02-05T20:45:42.937Z,102367.62
2019-02-05T20:48:14.767Z,102379.59
2019-02-05T20:52:25.187Z,102372.50
2019-02-05T20:54:57.253Z,102372.50
2019-02-05T20:57:29.255Z,102382.66
2019-02-05T21:00:01.588Z,102379.13
2019-02-05T21:02:34.375Z,102370.76
2019-02-05T21:05:09.339Z,102372.50
2019-02-05T21:07:42.489Z,102381.38
2019-02-05T21:10:17.915Z,102375.64
2019-02-05T21:12:51.394Z,102380.98
2019-02-05T21:15:24.961Z,102380.95
2019-02-05T21:17:58.378Z,102376.48
2019-02-05T21:20:32.915Z,102379.17
2019-02-05T21:23:05.243Z,102387.16
2019-02-05T21:25:37.895Z,102388.53
2019-02-05T21:28:10.497Z,102391.15
2019-02-05T21:30:42.163Z,102383.22
2019-02-05T21:33:13.838Z,102383.64
2019-02-05T21:35:45.811Z,102392.50
2019-02-05T21:38:18.093Z,102392.02
2019-02-05T21:40:50.020Z,102395.05
2019-02-05T21:43:21.549Z,102392.89
2019-02-05T21:45:54.010Z,102391.56
2019-02-05T21:48:26.096Z,102397.78
2019-02-05T21:50:57.991Z,102394.28
2019-02-05T21:53:30.961Z,102389.42
2019-02-05T21:56:03.303Z,102393.83
2019-02-05T21:58:34.811Z,102397.42
2019-02-05T22:01:07.558Z,102392.05
2019-02-05T22:03:39.614Z,102382.78
2019-02-05T22:06:11.679Z,102394.73
2019-02-05T22:08:42.942Z,102389.04
2019-02-05T22:11:14.746Z,102392.15
2019-02-05T22:13:47.729Z,102392.09
2019-02-05T22:16:19.866Z,102397.87
2019-02-05T22:18:52.383Z,102382.84
2019-02-05T22:21:24.470Z,102377.05
2019-02-05T22:23:56.040Z,102381.06
2019-02-05T22:26:28.479Z,102374.88
2019-02-05T22:29:00.942Z,102385.07
2019-02-05T22:31:32.520Z,102380.61
2019-02-05T22:34:05.735Z,102381.03
2019-02-05T22:36:36.929Z,102385.92
2019-02-05T22:39:11.433Z,102389.92
2019-02-05T22:41:43.659Z,102382.78
2019-02-05T22:44:17.029Z,102381.06
2019-02-05T22:46:49.307Z,102390.75
2019-02-05T22:50:14.641Z,102383.23
2019-02-05T22:52:46.354Z,102394.75
2019-02-05T22:55:19.580Z,102389.48
2019-02-05T22:57:51.703Z,102381.05
2019-02-05T23:00:55.035Z,102378.81
2019-02-05T23:03:36.718Z,102371.29
2019-02-05T23:06:28.505Z,102370.01
2019-02-05T23:09:25.956Z,102364.22
2019-02-05T23:12:23.534Z,102365.13
2019-02-05T23:15:13.781Z,102370.41
2019-02-05T23:17:45.711Z,102369.53
2019-02-05T23:20:20.164Z,102380.20
2019-02-05T23:22:52.667Z,102380.64
2019-02-05T23:25:23.982Z,102376.18
2019-02-05T23:27:55.255Z,102382.83
2019-02-05T23:30:30.811Z,102388.58
2019-02-05T23:33:08.222Z,102379.72
2019-02-05T23:35:40.351Z,102380.17
2019-02-05T23:38:13.105Z,102379.28
2019-02-05T23:40:46.257Z,102378.80
2019-02-05T23:43:18.540Z,102393.41
2019-02-05T23:46:00.838Z,102380.16
2019-02-05T23:48:50.990Z,102376.63
2019-02-05T23:51:22.267Z,102389.87
2019-02-05T23:53:54.356Z,102371.73
2019-02-05T23:56:26.289Z,102383.61
2019-02-05T23:58:57.820Z,102387.58
